Time;durP1;ratioP1;P1;durP2;ratioP2;P2;SDS_P1;SDS_P2;PMS_P1;PMS_P2;Temp;Humidity;BMP_temperature;BMP_pressure;BME280_temperature;BME280_humidity;BME280_pressure;Samples;Min_cycle;Max_cycle;Signal;HPM_P1;HPM_P2
2023/01/23 00:00:36;;;;;;;;;55.33;43.33;;;;;4.00;77.01;103181.41;5116052;27;45459;-66
2023/01/23 00:03:01;;;;;;;;;57.00;43.67;;;;;3.97;77.29;103177.81;5117512;27;45548;-66
2023/01/23 00:05:26;;;;;;;;;56.33;40.67;;;;;3.97;77.69;103172.59;5110351;27;47095;-65
2023/01/23 00:07:52;;;;;;;;;42.00;38.33;;;;;3.98;77.31;103174.38;5116876;27;45651;-65
2023/01/23 00:10:17;;;;;;;;;56.33;42.00;;;;;3.96;77.26;103178.63;5121624;27;45632;-66
2023/01/23 00:12:44;;;;;;;;;52.67;39.67;;;;;3.97;77.56;103180.41;5139568;27;45164;-65
2023/01/23 00:15:11;;;;;;;;;56.00;39.67;;;;;3.95;77.78;103182.03;5123910;27;46568;-66
2023/01/23 00:17:37;;;;;;;;;51.00;35.67;;;;;3.96;77.37;103178.63;5116842;27;46261;-66
2023/01/23 00:20:03;;;;;;;;;49.67;38.67;;;;;3.93;77.76;103166.34;5116746;27;45394;-65
2023/01/23 00:22:29;;;;;;;;;48.67;39.00;;;;;3.98;77.66;103182.19;5116018;27;45486;-66
2023/01/23 00:24:54;;;;;;;;;45.67;33.33;;;;;3.96;77.75;103179.50;5117047;27;45534;-66
2023/01/23 00:27:20;;;;;;;;;48.33;36.67;;;;;3.70;77.43;103127.97;5116767;27;45573;-66
2023/01/23 00:29:46;;;;;;;;;41.67;33.00;;;;;3.86;77.74;103169.50;5116998;27;45394;-66
2023/01/23 00:32:12;;;;;;;;;49.67;39.00;;;;;3.94;77.79;103175.94;5118460;27;45425;-66
2023/01/23 00:34:37;;;;;;;;;56.00;41.33;;;;;3.96;78.11;103181.22;5118211;27;45877;-65
2023/01/23 00:37:03;;;;;;;;;48.00;36.67;;;;;3.88;77.96;103162.66;5118077;27;45217;-66
2023/01/23 00:39:29;;;;;;;;;50.33;39.00;;;;;3.97;77.86;103178.69;5118371;27;45304;-63
2023/01/23 00:41:54;;;;;;;;;50.00;36.33;;;;;3.93;77.88;103178.47;5118303;27;45417;-63
2023/01/23 00:44:20;;;;;;;;;55.33;38.33;;;;;3.92;77.42;103179.28;5123004;27;46138;-63
2023/01/23 00:46:46;;;;;;;;;48.00;37.33;;;;;3.83;77.70;103157.25;5137666;27;45457;-64
2023/01/23 00:49:11;;;;;;;;;54.00;40.33;;;;;3.85;78.02;103178.16;5139124;27;45698;-64
2023/01/23 00:51:37;;;;;;;;;52.33;38.33;;;;;3.80;78.27;103158.81;5138874;27;45584;-65
2023/01/23 00:54:02;;;;;;;;;47.00;38.00;;;;;3.85;77.68;103154.69;5138659;27;46683;-64
2023/01/23 00:56:28;;;;;;;;;65.67;40.67;;;;;3.93;78.28;103165.44;5137403;27;45394;-64
2023/01/23 00:58:53;;;;;;;;;45.67;34.67;;;;;3.97;78.18;103164.78;5136414;27;45366;-64
2023/01/23 01:01:21;;;;;;;;;57.00;44.00;;;;;3.90;78.15;103152.28;5122076;27;45406;-64
2023/01/23 01:03:46;;;;;;;;;50.67;38.67;;;;;3.97;77.99;103164.78;5120350;27;47104;-65
2023/01/23 01:06:12;;;;;;;;;57.67;42.00;;;;;3.96;77.94;103158.63;5119341;27;45432;-65
2023/01/23 01:08:38;;;;;;;;;58.33;40.67;;;;;3.95;77.78;103149.06;5120484;27;45445;-65
2023/01/23 01:11:04;;;;;;;;;54.33;40.00;;;;;4.03;77.78;103161.53;5121435;27;45935;-65
2023/01/23 01:13:29;;;;;;;;;44.33;37.00;;;;;4.03;77.58;103154.59;5137937;27;46347;-64
2023/01/23 01:15:55;;;;;;;;;48.67;37.00;;;;;4.00;77.79;103147.53;5134916;27;45504;-64
2023/01/23 01:18:21;;;;;;;;;46.00;39.33;;;;;3.88;77.96;103128.78;5121226;27;45473;-65
2023/01/23 01:20:47;;;;;;;;;55.00;42.00;;;;;3.99;77.36;103152.69;5119208;27;45727;-65
2023/01/23 01:23:12;;;;;;;;;50.33;40.00;;;;;3.97;78.26;103160.44;5120762;27;45615;-65
2023/01/23 01:25:39;;;;;;;;;64.67;45.67;;;;;4.00;78.04;103159.69;5120518;27;45386;-65
2023/01/23 01:28:05;;;;;;;;;47.33;37.33;;;;;3.97;77.12;103155.22;5118853;27;45311;-65
2023/01/23 01:30:30;;;;;;;;;54.33;38.67;;;;;3.99;77.18;103153.59;5120458;27;45293;-65
2023/01/23 01:32:56;;;;;;;;;51.00;40.33;;;;;4.02;77.38;103163.22;5120833;27;47154;-65
2023/01/23 01:35:22;;;;;;;;;54.67;41.00;;;;;3.91;77.60;103147.16;5126826;27;45330;-65
2023/01/23 01:37:48;;;;;;;;;56.33;43.33;;;;;3.96;77.68;103152.56;5136480;27;45374;-65
2023/01/23 01:40:17;;;;;;;;;48.33;37.33;;;;;4.00;77.60;103160.56;5121751;27;45403;-65
2023/01/23 01:42:46;;;;;;;;;54.67;43.33;;;;;3.98;77.82;103156.13;5119377;27;46605;-65
2023/01/23 01:45:49;;;;;;;;;45.67;37.33;;;;;3.95;77.71;103148.16;5119997;27;45448;-65
2023/01/23 01:48:16;;;;;;;;;63.67;46.00;;;;;3.87;77.81;103134.81;5102790;27;45500;-65
2023/01/23 01:50:42;;;;;;;;;62.33;44.00;;;;;3.88;78.23;103144.41;5120313;27;45387;-65
2023/01/23 01:53:08;;;;;;;;;54.33;42.33;;;;;3.92;78.23;103151.53;5118716;27;46625;-65
2023/01/23 01:55:33;;;;;;;;;56.00;41.00;;;;;3.92;78.07;103150.63;5124614;27;45376;-65
2023/01/23 01:57:59;;;;;;;;;62.00;44.00;;;;;3.93;78.26;103157.63;5119929;27;45382;-65
2023/01/23 02:00:25;;;;;;;;;62.67;42.67;;;;;3.95;78.41;103159.50;5119144;27;45390;-64
2023/01/23 02:02:54;;;;;;;;;55.33;41.33;;;;;3.95;78.31;103151.66;5119914;27;45341;-65
2023/01/23 02:05:23;;;;;;;;;52.33;40.33;;;;;4.00;78.01;103157.06;5118792;27;45829;-65
2023/01/23 02:08:00;;;;;;;;;52.67;39.67;;;;;3.97;77.91;103157.81;5130603;27;45476;-65
2023/01/23 02:10:26;;;;;;;;;61.33;46.00;;;;;3.99;78.44;103168.31;5125787;27;45396;-65
2023/01/23 02:12:51;;;;;;;;;49.33;41.00;;;;;3.96;78.27;103162.97;5125758;27;46527;-65
2023/01/23 02:15:20;;;;;;;;;60.67;43.67;;;;;4.03;77.95;103174.56;5120390;27;45462;-65
2023/01/23 02:17:48;;;;;;;;;57.33;41.33;;;;;4.03;78.25;103167.63;5119789;27;45496;-65
2023/01/23 02:20:20;;;;;;;;;47.00;37.00;;;;;4.05;78.37;103176.41;5118929;27;45609;-65
2023/01/23 02:23:04;;;;;;;;;58.67;42.00;;;;;4.03;78.16;103165.03;5119985;27;45373;-65
2023/01/23 02:25:40;;;;;;;;;46.00;36.33;;;;;4.08;78.36;103162.63;5118527;27;45376;-65
2023/01/23 02:28:06;;;;;;;;;56.33;42.00;;;;;4.00;78.13;103159.69;5119646;27;45400;-65
2023/01/23 02:30:31;;;;;;;;;54.67;41.00;;;;;4.09;78.41;103164.41;5118010;27;45693;-65
2023/01/23 02:33:18;;;;;;;;;57.67;45.00;;;;;4.01;77.82;103158.88;5119128;27;45328;-65
2023/01/23 02:35:43;;;;;;;;;42.00;26.33;;;;;4.03;77.87;103171.97;5116365;27;45419;-65
2023/01/23 02:38:09;;;;;;;;;68.33;42.00;;;;;4.06;77.98;103172.09;5115306;27;45799;-65
2023/01/23 02:40:38;;;;;;;;;64.00;46.67;;;;;4.06;78.53;103170.38;5129534;27;45519;-65
2023/01/23 02:43:05;;;;;;;;;63.00;44.67;;;;;4.02;78.31;103168.44;5119000;27;47506;-65
2023/01/23 02:45:31;;;;;;;;;54.00;40.67;;;;;3.98;78.38;103156.13;5118133;27;45298;-65
2023/01/23 02:47:57;;;;;;;;;59.00;43.33;;;;;3.95;78.10;103151.66;5117761;27;46888;-65
2023/01/23 02:50:22;;;;;;;;;66.67;44.67;;;;;4.04;77.89;103166.81;5113398;27;45372;-65
2023/01/23 02:52:49;;;;;;;;;63.67;44.00;;;;;3.97;78.44;103152.63;5111325;27;45655;-65
2023/01/23 02:55:16;;;;;;;;;52.67;42.33;;;;;4.07;78.31;103160.84;5118450;27;45324;-65
2023/01/23 02:57:41;;;;;;;;;66.67;47.67;;;;;3.94;78.49;103144.66;5126663;27;45356;-65
2023/01/23 03:00:18;;;;;;;;;66.33;48.33;;;;;4.01;78.61;103169.28;5117402;27;45369;-65
2023/01/23 03:02:46;;;;;;;;;62.33;48.67;;;;;3.98;78.33;103154.41;5118443;27;45722;-65
2023/01/23 03:05:12;;;;;;;;;61.00;42.33;;;;;3.99;78.77;103166.63;5118388;27;45327;-65
2023/01/23 03:07:37;;;;;;;;;66.67;49.00;;;;;3.89;79.22;103168.75;5117904;27;45473;-65
2023/01/23 03:10:04;;;;;;;;;55.67;42.33;;;;;3.95;79.25;103174.22;5118244;27;46020;-65
2023/01/23 03:12:29;;;;;;;;;64.00;43.33;;;;;3.96;78.98;103174.28;5118134;27;45616;-65
2023/01/23 03:14:55;;;;;;;;;62.33;46.67;;;;;3.90;79.51;103170.53;5136289;27;45466;-65
2023/01/23 03:17:21;;;;;;;;;59.67;41.00;;;;;3.73;78.89;103129.00;5118902;27;45385;-65
2023/01/23 03:19:47;;;;;;;;;59.33;43.67;;;;;3.90;78.98;103166.19;5117277;27;45378;-65
2023/01/23 03:22:13;;;;;;;;;66.00;46.33;;;;;3.89;79.31;103166.13;5117900;27;47391;-65
2023/01/23 03:24:39;;;;;;;;;58.33;42.00;;;;;3.92;79.43;103166.28;5117960;27;45558;-65
2023/01/23 03:27:04;;;;;;;;;63.67;45.00;;;;;4.00;79.36;103177.94;5117219;27;45558;-65
2023/01/23 03:32:14;;;;;;;;;63.67;48.67;;;;;4.01;79.39;103183.22;5118877;27;45667;-65
2023/01/23 03:34:40;;;;;;;;;52.00;39.67;;;;;4.05;78.82;103192.03;5119081;27;45378;-65
2023/01/23 03:37:06;;;;;;;;;56.33;40.33;;;;;4.04;78.76;103189.38;5118302;27;45386;-65
2023/01/23 03:42:16;;;;;;;;;59.67;44.67;;;;;4.04;78.88;103189.38;5120567;27;45402;-65
2023/01/23 03:44:41;;;;;;;;;64.00;45.67;;;;;3.93;79.30;103175.88;5128550;27;45295;-65
2023/01/23 03:47:07;;;;;;;;;58.33;43.33;;;;;4.02;78.74;103199.72;5118371;27;45224;-65
2023/01/23 03:49:32;;;;;;;;;57.33;44.33;;;;;3.96;79.21;103195.13;5118292;27;45372;-65
2023/01/23 03:51:58;;;;;;;;;66.00;44.00;;;;;4.02;79.57;103197.13;5116635;27;47266;-65
2023/01/23 03:54:23;;;;;;;;;60.33;47.67;;;;;4.00;79.53;103189.25;5118887;27;45354;-65
2023/01/23 03:56:49;;;;;;;;;58.67;44.00;;;;;3.94;79.28;103186.38;5117999;27;45474;-65
2023/01/23 03:59:14;;;;;;;;;54.33;40.67;;;;;3.93;79.42;103187.19;5123158;27;45840;-65
2023/01/23 04:01:40;;;;;;;;;53.67;41.33;;;;;3.93;79.94;103186.31;5116408;27;45480;-64
2023/01/23 04:04:05;;;;;;;;;56.33;44.33;;;;;3.96;79.18;103183.81;5117853;27;45296;-65
2023/01/23 04:06:31;;;;;;;;;57.33;38.33;;;;;3.96;79.74;103186.44;5118038;27;45478;-65
2023/01/23 04:08:57;;;;;;;;;69.00;47.33;;;;;3.78;79.72;103148.31;5117870;27;45515;-65
2023/01/23 04:11:23;;;;;;;;;58.00;43.00;;;;;4.02;79.70;103184.09;5117147;27;47121;-65
2023/01/23 04:13:49;;;;;;;;;49.67;41.33;;;;;3.93;79.22;103179.38;5117097;27;45604;-65
2023/01/23 04:16:14;;;;;;;;;55.67;41.00;;;;;4.00;79.41;103194.44;5127731;27;45358;-65
2023/01/23 04:18:39;;;;;;;;;57.33;42.67;;;;;4.02;79.72;103189.31;5131033;27;45463;-65
2023/01/23 04:21:05;;;;;;;;;46.00;37.00;;;;;4.06;79.65;103200.78;5117790;27;46562;-65
2023/01/23 04:23:30;;;;;;;;;59.67;42.33;;;;;4.06;79.28;103188.63;5117314;27;45299;-65
2023/01/23 04:25:56;;;;;;;;;59.67;42.00;;;;;4.03;79.49;103183.28;5097864;27;45462;-65
2023/01/23 04:28:22;;;;;;;;;51.33;41.33;;;;;4.07;79.29;103186.94;5102588;27;45658;-65
2023/01/23 04:30:50;;;;;;;;;60.67;44.00;;;;;4.01;79.52;103177.13;5117564;27;46978;-64
2023/01/23 04:33:15;;;;;;;;;55.33;43.33;;;;;3.98;79.48;103184.81;5124516;27;45308;-65
2023/01/23 04:35:58;;;;;;;;;59.33;41.00;;;;;3.91;80.11;103175.81;5117490;27;45268;-65
2023/01/23 04:38:24;;;;;;;;;54.33;41.67;;;;;3.93;79.76;103176.75;5117649;27;45476;-65
2023/01/23 04:40:50;;;;;;;;;51.00;39.00;;;;;3.94;79.67;103185.50;5117440;27;46255;-65
2023/01/23 04:43:16;;;;;;;;;55.00;37.33;;;;;3.99;79.33;103195.31;5117166;27;45417;-65
2023/01/23 04:45:42;;;;;;;;;60.00;41.00;;;;;3.96;79.49;103192.53;5117556;27;45332;-65
2023/01/23 04:48:08;;;;;;;;;57.33;40.33;;;;;3.91;79.93;103185.34;5125743;27;45615;-65
2023/01/23 04:50:33;;;;;;;;;54.00;40.67;;;;;3.95;80.28;103190.78;5117893;27;45388;-65
2023/01/23 04:52:59;;;;;;;;;47.33;37.00;;;;;3.92;79.86;103190.63;5117382;27;45366;-65
2023/01/23 04:55:24;;;;;;;;;52.67;36.67;;;;;3.94;80.02;103198.53;5116911;27;46536;-64
2023/01/23 04:57:50;;;;;;;;;51.00;37.67;;;;;4.00;79.40;103215.31;5118037;27;45579;-64
2023/01/23 05:00:16;;;;;;;;;56.00;40.67;;;;;4.00;79.77;103211.81;5116769;27;46346;-65
2023/01/23 05:02:44;;;;;;;;;62.67;43.33;;;;;4.02;79.52;103225.78;5122901;27;45491;-65
2023/01/23 05:05:09;;;;;;;;;56.00;41.00;;;;;3.97;79.53;103215.19;5116480;27;45187;-65
2023/01/23 05:07:35;;;;;;;;;55.33;41.00;;;;;3.91;79.84;103216.63;5117968;27;45370;-65
2023/01/23 05:10:00;;;;;;;;;52.00;36.67;;;;;3.95;80.10;103214.22;5101795;27;45569;-65
2023/01/23 05:12:25;;;;;;;;;50.33;39.00;;;;;4.02;79.60;103225.78;5117632;27;45174;-65
2023/01/23 05:14:51;;;;;;;;;47.33;39.00;;;;;4.07;79.56;103239.94;5132376;27;45494;-64
2023/01/23 05:17:16;;;;;;;;;60.33;43.33;;;;;3.99;79.44;103225.66;5118231;27;45388;-65
2023/01/23 05:19:41;;;;;;;;;52.00;41.00;;;;;4.01;79.64;103227.53;5121273;27;45444;-65
2023/01/23 05:22:07;;;;;;;;;52.33;41.00;;;;;4.04;79.44;103226.78;5118035;27;45424;-65
2023/01/23 05:24:32;;;;;;;;;47.33;39.00;;;;;4.03;79.83;103230.19;5115421;27;45410;-65
2023/01/23 05:26:58;;;;;;;;;57.00;38.00;;;;;4.00;79.66;103220.53;5117317;27;45400;-65
2023/01/23 05:29:23;;;;;;;;;53.33;36.33;;;;;4.09;79.54;103230.47;5116707;27;46291;-65
2023/01/23 05:31:49;;;;;;;;;62.33;44.00;;;;;4.04;79.93;103234.59;5116210;27;45475;-65
2023/01/23 05:34:14;;;;;;;;;52.67;40.00;;;;;4.01;79.78;103231.84;5118912;27;45343;-65
2023/01/23 05:36:39;;;;;;;;;47.00;40.00;;;;;4.00;79.56;103227.47;5117461;27;45397;-65
2023/01/23 05:39:05;;;;;;;;;54.67;43.33;;;;;4.06;79.79;103242.47;5117340;27;45499;-65
2023/01/23 05:41:30;;;;;;;;;51.00;36.00;;;;;4.08;79.43;103246.94;5117454;27;45445;-65
2023/01/23 05:43:55;;;;;;;;;57.33;43.33;;;;;4.08;79.82;103246.94;5118603;27;45413;-65
2023/01/23 05:46:20;;;;;;;;;57.67;40.00;;;;;3.98;79.74;103231.72;5121297;27;45412;-64
2023/01/23 05:48:50;;;;;;;;;66.33;45.33;;;;;4.13;79.73;103254.97;5120756;27;45511;-65
2023/01/23 05:51:17;;;;;;;;;61.33;43.67;;;;;4.16;79.48;103262.94;5119752;27;45336;-65
2023/01/23 05:53:42;;;;;;;;;59.00;42.00;;;;;4.12;80.02;103248.84;5127632;27;45447;-65
2023/01/23 05:56:08;;;;;;;;;59.00;44.00;;;;;4.23;79.77;103259.75;5141379;27;45392;-65
2023/01/23 05:58:34;;;;;;;;;62.00;41.33;;;;;4.21;79.64;103255.31;5141446;27;46161;-65
2023/01/23 06:01:02;;;;;;;;;59.67;43.67;;;;;4.18;79.32;103267.41;5141503;27;45442;-65
2023/01/23 06:03:28;;;;;;;;;59.33;43.67;;;;;4.17;79.41;103257.78;5129461;27;45401;-65
2023/01/23 06:05:53;;;;;;;;;58.00;39.00;;;;;4.13;79.78;103258.47;5119311;27;45491;-64
2023/01/23 06:08:18;;;;;;;;;49.00;39.67;;;;;4.13;79.39;103254.97;5119452;27;46567;-65
2023/01/23 06:10:44;;;;;;;;;45.67;37.00;;;;;4.15;79.36;103258.53;5124157;27;45288;-64
2023/01/23 06:13:09;;;;;;;;;70.67;44.67;;;;;4.05;79.68;103254.59;5119956;27;45420;-65
2023/01/23 06:15:35;;;;;;;;;53.00;42.00;;;;;4.08;80.50;103253.84;5120028;27;45403;-65
2023/01/23 06:18:00;;;;;;;;;55.33;38.33;;;;;4.05;80.13;103235.47;5119103;27;45336;-65
2023/01/23 06:20:26;;;;;;;;;65.33;44.33;;;;;4.07;80.21;103242.56;5103575;27;45503;-64
2023/01/23 06:22:51;;;;;;;;;60.67;40.33;;;;;3.96;80.32;103212.50;5119737;27;45378;-64
2023/01/23 06:25:19;;;;;;;;;55.33;45.00;;;;;4.12;80.11;103237.53;5119886;27;45480;-64
2023/01/23 06:27:45;;;;;;;;;55.00;41.33;;;;;4.07;79.98;103239.94;5130887;27;46194;-64
2023/01/23 06:30:10;;;;;;;;;57.33;44.00;;;;;4.11;79.93;103228.84;5117626;27;45354;-65
2023/01/23 06:32:36;;;;;;;;;52.67;40.33;;;;;4.15;79.59;103237.66;5119538;27;45435;-64
2023/01/23 06:35:01;;;;;;;;;56.33;41.67;;;;;3.98;80.17;103223.91;5119132;27;45385;-64
2023/01/23 06:37:26;;;;;;;;;50.00;40.33;;;;;4.02;80.23;103228.41;5118655;27;45427;-64
2023/01/23 06:39:52;;;;;;;;;57.00;39.33;;;;;4.12;80.29;103238.41;5118480;27;45695;-64
2023/01/23 06:42:17;;;;;;;;;56.00;40.33;;;;;4.10;80.11;103231.38;5121875;27;45650;-63
2023/01/23 06:44:43;;;;;;;;;55.67;41.00;;;;;4.16;80.27;103239.47;5124138;27;45773;-64
2023/01/23 06:47:09;;;;;;;;;60.00;41.67;;;;;4.08;79.82;103217.34;5118501;27;46226;-63
2023/01/23 06:49:34;;;;;;;;;57.00;43.67;;;;;4.12;79.79;103234.94;5117411;27;45404;-62
2023/01/23 06:52:00;;;;;;;;;58.00;41.00;;;;;4.17;80.02;103231.69;5119158;27;45434;-62
2023/01/23 06:54:25;;;;;;;;;57.33;37.33;;;;;4.19;80.07;103235.25;5117626;27;45581;-62
2023/01/23 06:56:50;;;;;;;;;60.00;44.00;;;;;4.21;80.31;103240.53;5116147;27;45270;-62
2023/01/23 06:59:16;;;;;;;;;56.00;39.67;;;;;4.11;79.95;103235.75;5116492;27;45536;-62
2023/01/23 07:01:41;;;;;;;;;49.00;39.67;;;;;4.05;80.00;103238.97;5117280;27;46725;-61
2023/01/23 07:04:10;;;;;;;;;59.33;43.33;;;;;3.96;80.88;103238.56;5116908;27;45383;-61
2023/01/23 07:06:35;;;;;;;;;56.33;40.33;;;;;4.02;80.75;103241.44;5117264;27;46720;-61
2023/01/23 07:09:01;;;;;;;;;56.00;41.67;;;;;3.92;80.99;103223.59;5117592;27;45372;-61
2023/01/23 07:11:26;;;;;;;;;63.00;41.00;;;;;3.95;80.87;103240.28;5117983;27;45439;-61
2023/01/23 07:13:52;;;;;;;;;60.00;43.33;;;;;3.86;81.36;103223.34;5117781;27;45334;-61
2023/01/23 07:16:18;;;;;;;;;57.00;41.67;;;;;3.81;81.36;103223.13;5116207;27;46190;-62
2023/01/23 07:18:44;;;;;;;;;57.33;44.00;;;;;3.90;81.76;103247.00;5113000;27;45437;-63
2023/01/23 07:21:09;;;;;;;;;54.67;38.00;;;;;3.91;81.86;103246.19;5116635;27;45535;-62
2023/01/23 07:23:35;;;;;;;;;55.33;42.67;;;;;3.92;81.63;103239.25;5117608;27;45290;-62
2023/01/23 07:26:02;;;;;;;;;53.00;41.00;;;;;4.01;81.61;103247.50;5115671;27;46314;-63
2023/01/23 07:28:28;;;;;;;;;63.67;43.67;;;;;3.97;82.16;103249.06;5118191;27;45927;-63
2023/01/23 07:30:54;;;;;;;;;59.00;42.67;;;;;3.93;81.54;103247.13;5117073;27;45488;-62
2023/01/23 07:33:19;;;;;;;;;64.00;42.67;;;;;3.99;82.10;103263.06;5115642;27;45404;-62
2023/01/23 07:35:44;;;;;;;;;63.00;44.67;;;;;4.10;81.20;103273.09;5118554;27;45357;-64
2023/01/23 07:38:10;;;;;;;;;52.33;41.33;;;;;4.00;81.77;103266.56;5116192;27;45401;-62
2023/01/23 07:40:37;;;;;;;;;59.67;44.33;;;;;4.09;81.57;103281.72;5118104;27;45485;-62
2023/01/23 07:43:03;;;;;;;;;58.33;41.67;;;;;4.03;81.33;103273.63;5117458;27;45484;-63
2023/01/23 07:45:29;;;;;;;;;65.00;48.67;;;;;4.12;81.11;103281.84;5116244;27;46388;-63
2023/01/23 07:47:54;;;;;;;;;59.33;45.00;;;;;3.96;81.25;103256.81;5118796;27;45189;-63
2023/01/23 07:50:19;;;;;;;;;62.67;44.00;;;;;4.10;81.07;103288.72;5119097;27;45273;-63
2023/01/23 07:52:45;;;;;;;;;63.00;46.00;;;;;4.12;81.47;103292.28;5118932;27;45436;-63
2023/01/23 07:55:10;;;;;;;;;48.33;38.67;;;;;4.15;80.55;103300.25;5118936;27;46636;-63
2023/01/23 07:57:35;;;;;;;;;58.00;42.33;;;;;4.13;80.75;103300.19;5118710;27;45297;-63
2023/01/23 08:00:01;;;;;;;;;57.33;40.33;;;;;4.18;81.32;103303.91;5118772;27;45163;-63
2023/01/23 08:02:26;;;;;;;;;62.33;44.67;;;;;4.15;81.20;103293.34;5119093;27;45567;-63
2023/01/23 08:04:52;;;;;;;;;53.33;37.00;;;;;4.12;81.04;103282.75;5118458;27;45442;-62
2023/01/23 08:07:17;;;;;;;;;57.00;40.33;;;;;4.15;80.60;103290.72;5118424;27;45382;-63
2023/01/23 08:09:43;;;;;;;;;63.67;42.00;;;;;4.20;80.74;103296.13;5118304;27;46066;-63
2023/01/23 08:12:08;;;;;;;;;59.33;41.00;;;;;4.12;80.51;103280.13;5118696;27;45505;-63
2023/01/23 08:14:33;;;;;;;;;51.33;38.33;;;;;4.13;80.37;103292.34;5118479;27;46405;-61
2023/01/23 08:17:00;;;;;;;;;56.33;39.33;;;;;4.10;80.80;103300.03;5118396;27;45386;-61
2023/01/23 08:19:26;;;;;;;;;49.00;41.00;;;;;4.13;80.87;103291.47;5118721;27;45311;-63
2023/01/23 08:21:51;;;;;;;;;55.67;38.00;;;;;4.11;80.53;103298.31;5118505;27;45436;-62
2023/01/23 08:24:17;;;;;;;;;53.33;38.00;;;;;4.11;80.83;103304.44;5118210;27;45685;-62
2023/01/23 08:26:42;;;;;;;;;55.33;42.67;;;;;4.13;81.18;103302.78;5118347;27;45559;-62
2023/01/23 08:29:09;;;;;;;;;41.33;38.33;;;;;3.97;80.73;103263.81;5116856;27;45558;-62
2023/01/23 08:31:35;;;;;;;;;55.00;39.33;;;;;4.23;80.41;103313.66;5118522;27;45452;-61
2023/01/23 08:34:01;;;;;;;;;55.33;44.00;;;;;4.29;80.18;103324.34;5117933;27;46408;-62
2023/01/23 08:36:26;;;;;;;;;65.00;42.67;;;;;4.23;80.28;103316.25;5118101;27;45468;-61
2023/01/23 08:38:52;;;;;;;;;61.00;41.00;;;;;4.27;80.52;103326.88;5118497;27;45344;-62
2023/01/23 08:41:17;;;;;;;;;55.00;39.67;;;;;4.32;80.27;103317.53;5118635;27;45508;-62
2023/01/23 08:43:43;;;;;;;;;52.00;40.00;;;;;4.40;79.78;103325.72;5117894;27;46586;-62
2023/01/23 08:46:09;;;;;;;;;57.33;41.67;;;;;4.46;79.62;103327.69;5117991;27;45372;-62
2023/01/23 08:48:34;;;;;;;;;53.67;37.00;;;;;4.45;79.46;103325.94;5118219;27;45457;-62
2023/01/23 08:51:03;;;;;;;;;57.67;40.67;;;;;4.47;79.54;103339.91;5118276;27;45440;-62
2023/01/23 08:53:30;;;;;;;;;60.00;43.33;;;;;4.45;79.36;103339.84;5117942;27;46541;-61
2023/01/23 08:56:22;;;;;;;;;54.67;40.33;;;;;4.46;79.63;103339.03;5117968;27;45485;-62
2023/01/23 08:58:48;;;;;;;;;53.67;40.33;;;;;4.44;79.23;103334.56;5114459;27;45193;-60
2023/01/23 09:01:15;;;;;;;;;57.67;40.33;;;;;4.40;79.67;103333.56;5117865;27;45512;-61
2023/01/23 09:03:41;;;;;;;;;58.00;43.00;;;;;4.36;79.76;103326.41;5117820;27;46537;-61
2023/01/23 09:06:07;;;;;;;;;58.33;44.00;;;;;4.33;80.40;103340.19;5117683;27;45420;-61
2023/01/23 09:08:33;;;;;;;;;58.67;43.00;;;;;4.41;80.26;103348.34;5117937;27;45415;-63
2023/01/23 09:11:04;;;;;;;;;58.67;42.67;;;;;4.46;80.02;103353.78;5117761;27;45311;-62
2023/01/23 09:13:30;;;;;;;;;50.67;41.33;;;;;4.48;79.83;103345.19;5117535;27;45792;-62
2023/01/23 09:15:55;;;;;;;;;57.67;43.33;;;;;4.43;79.58;103341.50;5117550;27;45456;-62
2023/01/23 09:18:24;;;;;;;;;50.67;39.00;;;;;4.51;79.92;103347.06;5118180;27;45287;-62
2023/01/23 09:20:50;;;;;;;;;56.00;45.00;;;;;4.38;80.06;103326.47;5121497;27;45347;-62
2023/01/23 09:23:15;;;;;;;;;62.00;42.67;;;;;4.50;79.98;103346.19;5120849;27;45448;-62
2023/01/23 09:25:41;;;;;;;;;56.00;40.67;;;;;4.55;79.44;103346.38;5120948;27;45318;-62
2023/01/23 09:28:06;;;;;;;;;57.67;41.67;;;;;4.48;79.67;103339.97;5121122;27;45479;-63
2023/01/23 09:30:32;;;;;;;;;53.67;38.67;;;;;4.53;79.93;103340.19;5121277;27;45355;-63
2023/01/23 09:32:57;;;;;;;;;57.67;41.67;;;;;4.46;79.45;103336.44;5121098;27;45519;-62
2023/01/23 09:35:22;;;;;;;;;58.33;40.33;;;;;4.46;80.08;103349.47;5121043;27;45353;-62
2023/01/23 09:38:07;;;;;;;;;48.67;41.00;;;;;4.54;80.00;103357.63;5121102;27;45384;-63
2023/01/23 09:40:47;;;;;;;;;63.00;42.67;;;;;4.55;79.88;103354.22;5121456;27;45406;-63
2023/01/23 09:43:27;;;;;;;;;59.67;43.00;;;;;4.63;79.83;103354.53;5120582;27;46513;-63
2023/01/23 09:46:06;;;;;;;;;53.67;38.33;;;;;4.63;79.15;103357.13;5120646;27;45285;-63
2023/01/23 09:48:45;;;;;;;;;56.33;44.33;;;;;4.52;79.23;103341.91;5120747;27;45401;-62
2023/01/23 09:51:31;;;;;;;;;62.00;43.33;;;;;4.66;79.40;103354.66;5120978;27;45366;-63
2023/01/23 09:54:13;;;;;;;;;63.00;47.00;;;;;4.68;79.07;103353.03;5120522;27;46054;-63
2023/01/23 09:56:43;;;;;;;;;57.00;46.00;;;;;4.54;79.22;103341.97;5120785;27;45443;-63
2023/01/23 09:59:09;;;;;;;;;66.67;49.00;;;;;4.67;79.18;103362.56;5120269;27;45323;-64
2023/01/23 10:01:35;;;;;;;;;59.67;41.00;;;;;4.68;79.39;103360.88;5120860;27;45497;-63
2023/01/23 10:04:02;;;;;;;;;60.33;43.67;;;;;4.68;79.46;103359.13;5120845;27;45401;-63
2023/01/23 10:06:30;;;;;;;;;62.00;45.00;;;;;4.66;79.29;103355.56;5120330;27;45257;-63
2023/01/23 10:09:25;;;;;;;;;57.00;41.00;;;;;4.65;78.99;103351.19;5120104;27;45328;-63
2023/01/23 10:12:16;;;;;;;;;64.00;46.67;;;;;4.74;79.22;103363.72;5120559;27;45491;-63
2023/01/23 10:15:04;;;;;;;;;63.00;46.00;;;;;4.74;78.94;103373.28;5119894;27;45716;-64
2023/01/23 10:17:44;;;;;;;;;64.00;46.00;;;;;4.71;79.36;103363.59;5120122;27;45259;-62
2023/01/23 10:20:18;;;;;;;;;64.67;46.33;;;;;4.71;79.49;103355.78;5120257;27;45351;-62
2023/01/23 10:23:03;;;;;;;;;60.33;45.67;;;;;4.68;79.00;103345.19;5120754;27;45416;-63
2023/01/23 10:25:34;;;;;;;;;59.67;46.67;;;;;4.71;79.82;103354.03;5120050;27;45405;-62
2023/01/23 10:28:15;;;;;;;;;70.67;45.00;;;;;4.80;79.19;103358.78;5120000;27;45417;-62
2023/01/23 10:30:46;;;;;;;;;65.67;48.00;;;;;4.81;79.16;103355.34;5120112;27;45228;-62
2023/01/23 10:33:18;;;;;;;;;67.33;42.67;;;;;4.91;78.64;103358.34;5120340;27;45425;-62
2023/01/23 10:35:49;;;;;;;;;66.67;46.67;;;;;4.90;78.87;103361.81;5120174;27;46436;-62
2023/01/23 10:38:32;;;;;;;;;57.67;42.00;;;;;4.75;78.69;103362.00;5120142;27;45382;-62
2023/01/23 10:41:12;;;;;;;;;59.00;46.33;;;;;4.71;79.16;103363.59;5120263;27;45507;-62
2023/01/23 10:43:39;;;;;;;;;64.00;43.33;;;;;4.73;79.29;103361.06;5120124;27;45389;-62
2023/01/23 10:46:11;;;;;;;;;64.00;42.67;;;;;4.76;79.43;103354.25;5119816;27;45460;-62
2023/01/23 10:48:39;;;;;;;;;53.00;39.33;;;;;4.76;79.25;103354.25;5119884;27;45411;-62
2023/01/23 10:51:28;;;;;;;;;53.33;37.67;;;;;4.76;79.42;103345.53;5119952;27;45275;-62
2023/01/23 10:54:10;;;;;;;;;61.33;45.67;;;;;4.82;78.90;103359.75;5107147;27;45573;-62
2023/01/23 10:56:53;;;;;;;;;65.00;46.33;;;;;4.81;79.02;103368.41;5119586;27;47536;-62
2023/01/23 10:59:29;;;;;;;;;59.67;39.67;;;;;4.74;79.17;103360.25;5119526;27;45398;-62
2023/01/23 11:02:20;;;;;;;;;68.33;40.00;;;;;4.77;78.90;103358.63;5119899;27;45271;-62
2023/01/23 11:04:50;;;;;;;;;65.00;48.67;;;;;4.73;79.37;103359.31;5108778;27;46157;-61
2023/01/23 11:07:20;;;;;;;;;63.33;44.00;;;;;4.79;79.05;103366.53;5119284;27;45441;-61
2023/01/23 11:09:45;;;;;;;;;63.33;46.00;;;;;4.85;79.09;103357.25;5119271;27;45233;-62
2023/01/23 11:12:22;;;;;;;;;59.00;40.00;;;;;4.93;78.66;103357.59;5119807;27;45369;-61
2023/01/23 11:14:48;;;;;;;;;63.33;41.67;;;;;5.03;78.44;103351.94;5119631;27;45549;-61
2023/01/23 11:17:31;;;;;;;;;62.33;45.00;;;;;5.12;78.40;103346.19;5119367;27;45457;-63
2023/01/23 11:19:58;;;;;;;;;64.33;46.00;;;;;5.24;77.82;103343.19;5119275;27;45326;-63
2023/01/23 11:22:31;;;;;;;;;59.33;44.00;;;;;5.34;76.71;103352.31;5119476;27;45495;-63
2023/01/23 11:24:58;;;;;;;;;54.67;39.67;;;;;5.46;77.33;103349.31;5119514;27;45397;-63